createdAt,value
2019-04-29T00:02:27.354Z,7.50
2019-04-29T00:04:57.310Z,7.40
2019-04-29T00:07:28.382Z,7.40
2019-04-29T00:09:58.432Z,7.40
2019-04-29T00:12:29.917Z,7.30
2019-04-29T00:15:13.885Z,7.30
2019-04-29T00:17:56.766Z,7.20
2019-04-29T00:20:33.259Z,6.80
2019-04-29T00:23:03.573Z,6.50
2019-04-29T00:25:33.957Z,6.50
2019-04-29T00:28:04.112Z,6.40
2019-04-29T00:30:34.188Z,6.40
2019-04-29T00:33:04.249Z,6.50
2019-04-29T00:35:35.357Z,6.70
2019-04-29T00:38:30.212Z,6.90
2019-04-29T00:41:19.464Z,7.00
2019-04-29T00:44:01.082Z,6.90
2019-04-29T00:46:31.138Z,6.90
2019-04-29T00:49:01.127Z,6.70
2019-04-29T00:51:31.283Z,6.80
2019-04-29T00:54:12.254Z,6.90
2019-04-29T00:56:42.257Z,6.90
2019-04-29T00:59:12.253Z,6.90
2019-04-29T01:01:43.296Z,6.90
2019-04-29T01:04:13.453Z,6.90
2019-04-29T01:06:44.470Z,6.80
2019-04-29T01:09:16.639Z,6.90
2019-04-29T01:11:46.614Z,6.60
2019-04-29T01:14:16.685Z,6.40
2019-04-29T01:16:46.657Z,6.50
2019-04-29T01:19:16.852Z,6.50
2019-04-29T01:21:46.841Z,6.50
2019-04-29T01:24:16.870Z,6.50
2019-04-29T01:27:17.958Z,6.10
2019-04-29T01:29:48.198Z,5.90
2019-04-29T01:32:18.465Z,6.10
2019-04-29T01:34:53.506Z,6.20
2019-04-29T01:37:41.356Z,6.20
2019-04-29T01:40:33.242Z,6.20
2019-04-29T01:43:03.245Z,6.20
2019-04-29T01:45:34.236Z,6.20
2019-04-29T01:48:04.209Z,6.10
2019-04-29T01:50:34.209Z,6.10
2019-04-29T01:53:04.246Z,5.90
2019-04-29T01:55:34.356Z,5.90
2019-04-29T01:58:04.367Z,6.00
2019-04-29T02:00:34.334Z,6.00
2019-04-29T02:03:04.261Z,6.20
2019-04-29T02:05:34.384Z,6.20
2019-04-29T02:08:04.721Z,6.00
2019-04-29T02:10:35.330Z,5.80
2019-04-29T02:13:05.294Z,5.80
2019-04-29T02:15:35.380Z,5.90
2019-04-29T02:18:05.352Z,6.00
2019-04-29T02:20:35.365Z,5.90
2019-04-29T02:23:16.662Z,5.80
2019-04-29T02:25:46.998Z,6.00
2019-04-29T02:28:16.899Z,5.90
2019-04-29T02:30:49.074Z,5.90
2019-04-29T02:33:19.164Z,5.80
2019-04-29T02:35:49.209Z,5.70
2019-04-29T02:38:32.826Z,5.70
2019-04-29T02:41:12.543Z,5.60
2019-04-29T02:43:44.140Z,5.50
2019-04-29T02:46:14.201Z,5.70
2019-04-29T02:48:44.732Z,5.80
2019-04-29T02:51:16.446Z,5.70
2019-04-29T02:53:46.544Z,5.70
2019-04-29T02:56:16.517Z,5.80
2019-04-29T02:58:58.491Z,5.90
2019-04-29T03:01:43.545Z,6.00
2019-04-29T03:04:16.767Z,6.00
2019-04-29T03:06:47.214Z,5.90
2019-04-29T03:09:17.197Z,5.80
2019-04-29T03:11:47.246Z,5.80
2019-04-29T03:14:17.319Z,5.60
2019-04-29T03:16:47.378Z,5.50
2019-04-29T03:19:28.998Z,5.70
2019-04-29T03:22:01.062Z,5.70
2019-04-29T03:24:31.364Z,5.70
2019-04-29T03:27:01.345Z,5.80
2019-04-29T03:29:31.409Z,5.80
2019-04-29T03:32:01.453Z,6.00
2019-04-29T03:34:31.537Z,6.00
2019-04-29T03:37:01.621Z,5.90
2019-04-29T03:39:31.614Z,6.00
2019-04-29T03:42:01.819Z,6.00
2019-04-29T03:44:31.859Z,6.10
2019-04-29T03:47:01.837Z,6.20
2019-04-29T03:49:32.150Z,6.20
2019-04-29T03:52:02.143Z,6.20
2019-04-29T03:54:31.994Z,6.10
2019-04-29T03:57:01.995Z,6.20
2019-04-29T03:59:32.038Z,6.00
2019-04-29T04:02:15.723Z,6.00
2019-04-29T04:05:08.319Z,6.10
2019-04-29T04:07:46.484Z,6.20
2019-04-29T04:10:16.665Z,6.10
2019-04-29T04:12:46.640Z,6.10
2019-04-29T04:15:17.698Z,6.00
2019-04-29T04:17:57.499Z,5.70
2019-04-29T04:20:27.924Z,5.60
2019-04-29T04:22:58.205Z,5.70
2019-04-29T04:25:28.296Z,5.60
2019-04-29T04:27:58.417Z,5.40
2019-04-29T04:30:28.331Z,4.80
2019-04-29T04:32:58.519Z,4.60
2019-04-29T04:35:28.564Z,4.60
2019-04-29T04:37:58.567Z,4.70
2019-04-29T04:40:35.717Z,4.90
2019-04-29T04:43:05.809Z,5.20
2019-04-29T04:45:35.798Z,5.20
2019-04-29T04:48:05.820Z,5.30
2019-04-29T04:50:36.269Z,5.30
2019-04-29T04:53:06.265Z,5.40
2019-04-29T04:55:37.914Z,5.50
2019-04-29T04:58:08.019Z,5.60
2019-04-29T05:00:38.521Z,5.60
2019-04-29T05:03:08.609Z,5.60
2019-04-29T05:05:38.663Z,5.90
2019-04-29T05:08:08.637Z,5.90
2019-04-29T05:10:38.719Z,5.90
2019-04-29T05:13:08.750Z,6.00
2019-04-29T05:15:38.745Z,6.20
2019-04-29T05:18:08.716Z,6.20
2019-04-29T05:20:38.738Z,6.20
2019-04-29T05:23:08.689Z,6.20
2019-04-29T05:25:38.703Z,6.20
2019-04-29T05:28:08.737Z,6.20
2019-04-29T05:30:38.747Z,6.30
2019-04-29T05:33:09.792Z,6.30
2019-04-29T05:35:51.798Z,6.30
2019-04-29T05:38:40.990Z,6.20
2019-04-29T05:41:11.350Z,6.30
2019-04-29T05:43:47.233Z,6.30
2019-04-29T05:46:27.210Z,6.40
2019-04-29T05:48:57.122Z,6.20
2019-04-29T05:51:51.921Z,6.40
2019-04-29T05:54:22.005Z,6.60
2019-04-29T05:56:52.455Z,6.60
2019-04-29T05:59:22.432Z,6.70
2019-04-29T06:01:52.820Z,6.50
2019-04-29T06:04:22.812Z,6.40
2019-04-29T06:06:52.805Z,6.40
2019-04-29T06:09:22.710Z,6.50
2019-04-29T06:11:52.597Z,6.50
2019-04-29T06:14:22.952Z,6.60
2019-04-29T06:16:53.110Z,6.50
2019-04-29T06:19:24.638Z,6.90
2019-04-29T06:21:54.612Z,7.10
2019-04-29T06:24:24.521Z,7.30
2019-04-29T06:26:54.430Z,7.30
2019-04-29T06:29:24.430Z,7.40
2019-04-29T06:31:54.479Z,7.50
2019-04-29T06:34:24.439Z,7.40
2019-04-29T06:36:55.051Z,7.60
2019-04-29T06:39:25.348Z,7.60
2019-04-29T06:41:55.405Z,7.80
2019-04-29T06:44:25.386Z,8.10
2019-04-29T06:46:56.341Z,8.10
2019-04-29T06:49:26.447Z,8.20
2019-04-29T06:51:56.417Z,8.30
2019-04-29T06:54:26.415Z,8.50
2019-04-29T06:56:56.400Z,8.30
2019-04-29T06:59:26.813Z,8.30
2019-04-29T07:01:56.767Z,8.40
2019-04-29T07:04:30.540Z,8.50
2019-04-29T07:06:58.465Z,8.40
2019-04-29T07:09:28.476Z,8.80
2019-04-29T07:12:01.544Z,8.80
2019-04-29T07:14:33.331Z,9.10
2019-04-29T07:17:05.694Z,9.30
2019-04-29T07:19:33.341Z,9.20
2019-04-29T07:22:03.369Z,9.50
2019-04-29T07:24:33.345Z,10.10
2019-04-29T07:27:04.634Z,10.20
2019-04-29T07:29:37.782Z,10.20
2019-04-29T07:32:09.341Z,9.90
2019-04-29T07:34:39.603Z,10.10
2019-04-29T07:37:09.885Z,10.30
2019-04-29T07:39:39.927Z,10.20
2019-04-29T07:42:09.973Z,10.30
2019-04-29T07:44:48.952Z,10.50
2019-04-29T07:47:19.404Z,10.70
2019-04-29T07:49:51.403Z,10.90
2019-04-29T07:52:21.065Z,11.30
2019-04-29T07:54:55.059Z,11.60
2019-04-29T07:57:23.338Z,11.50
2019-04-29T07:59:53.313Z,11.50
2019-04-29T08:02:23.310Z,11.20
2019-04-29T08:04:53.336Z,11.40
2019-04-29T08:07:23.757Z,11.50
2019-04-29T08:09:53.824Z,11.30
2019-04-29T08:12:25.156Z,11.50
2019-04-29T08:14:58.134Z,11.90
2019-04-29T08:17:28.017Z,11.80
2019-04-29T08:20:00.601Z,12.10
2019-04-29T08:22:29.493Z,12.00
2019-04-29T08:24:59.808Z,11.80
2019-04-29T08:27:39.519Z,11.60
2019-04-29T08:30:06.718Z,11.90
2019-04-29T08:32:36.450Z,12.10
2019-04-29T08:35:07.414Z,12.30
2019-04-29T08:37:37.383Z,12.40
2019-04-29T08:40:15.941Z,12.40
2019-04-29T08:42:46.680Z,12.40
2019-04-29T08:45:48.525Z,12.30
2019-04-29T08:48:18.517Z,12.10
2019-04-29T08:50:48.550Z,12.20
2019-04-29T08:53:19.983Z,12.30
2019-04-29T08:55:49.956Z,12.30
2019-04-29T08:58:19.923Z,12.30
2019-04-29T09:00:51.410Z,12.10
2019-04-29T09:03:23.510Z,12.00
2019-04-29T09:06:05.062Z,12.20
2019-04-29T09:08:28.821Z,12.00
2019-04-29T09:10:56.557Z,12.50
2019-04-29T09:13:26.550Z,12.70
2019-04-29T09:15:56.491Z,13.00
2019-04-29T09:18:26.525Z,13.30
2019-04-29T09:20:56.810Z,13.80
2019-04-29T09:23:29.276Z,13.10
2019-04-29T09:26:24.095Z,13.90
2019-04-29T09:28:52.955Z,13.90
2019-04-29T09:31:22.952Z,13.70
2019-04-29T09:34:06.001Z,13.50
2019-04-29T09:36:24.596Z,13.50
2019-04-29T09:38:54.566Z,13.50
2019-04-29T09:41:41.033Z,13.50
2019-04-29T09:44:45.027Z,13.50
2019-04-29T09:47:16.353Z,13.50
2019-04-29T09:49:46.538Z,13.80
2019-04-29T09:52:16.506Z,13.60
2019-04-29T09:54:46.732Z,13.80
2019-04-29T09:57:16.742Z,13.50
2019-04-29T09:59:52.723Z,13.50
2019-04-29T10:02:47.597Z,13.70
2019-04-29T10:05:37.271Z,13.60
2019-04-29T10:08:07.651Z,14.00
2019-04-29T10:10:37.705Z,13.60
2019-04-29T10:13:07.940Z,14.00
2019-04-29T10:15:48.030Z,13.90
2019-04-29T10:18:25.148Z,14.20
2019-04-29T10:21:01.799Z,14.50
2019-04-29T10:23:31.761Z,14.30
2019-04-29T10:26:01.843Z,14.40
2019-04-29T10:28:33.097Z,14.00
2019-04-29T10:31:03.529Z,13.80
2019-04-29T10:33:33.514Z,13.80
2019-04-29T10:36:03.496Z,13.90
2019-04-29T10:38:33.449Z,14.10
2019-04-29T10:41:21.804Z,14.40
2019-04-29T10:44:20.006Z,14.00
2019-04-29T10:47:06.167Z,13.80
2019-04-29T10:49:43.537Z,13.70
2019-04-29T10:52:13.769Z,13.40
2019-04-29T10:54:43.926Z,13.40
2019-04-29T10:57:15.928Z,13.40
2019-04-29T10:59:50.207Z,13.50
2019-04-29T11:02:39.817Z,13.80
2019-04-29T11:05:19.701Z,13.90
2019-04-29T11:07:50.597Z,13.20
2019-04-29T11:10:25.737Z,13.10
2019-04-29T11:12:56.579Z,13.30
2019-04-29T11:15:32.651Z,13.10
2019-04-29T11:18:03.889Z,13.10
2019-04-29T11:20:35.266Z,13.20
2019-04-29T11:23:30.842Z,13.40
2019-04-29T11:26:23.196Z,13.40
2019-04-29T11:28:54.889Z,13.10
2019-04-29T11:31:25.994Z,12.80
2019-04-29T11:34:19.406Z,12.30
2019-04-29T11:36:49.520Z,12.20
2019-04-29T11:39:19.494Z,11.90
2019-04-29T11:41:50.147Z,11.60
2019-04-29T11:44:21.871Z,11.40
2019-04-29T11:46:52.525Z,11.20
2019-04-29T11:49:29.343Z,11.30
2019-04-29T11:52:09.050Z,11.30
2019-04-29T11:54:31.283Z,11.20
2019-04-29T11:57:01.203Z,11.00
2019-04-29T11:59:53.099Z,11.10
2019-04-29T12:02:45.926Z,11.00
2019-04-29T12:05:32.262Z,11.10
2019-04-29T12:08:06.639Z,11.00
2019-04-29T12:10:39.246Z,10.80
2019-04-29T12:13:09.131Z,10.80
2019-04-29T12:15:49.236Z,10.80
2019-04-29T12:18:21.736Z,10.90
2019-04-29T12:21:06.686Z,10.90
2019-04-29T12:23:37.033Z,10.90
2019-04-29T12:26:07.510Z,11.10
2019-04-29T12:28:37.935Z,11.00
2019-04-29T12:31:17.354Z,11.00
2019-04-29T12:33:53.069Z,11.00
2019-04-29T12:36:23.132Z,10.90
2019-04-29T12:39:15.351Z,10.70
2019-04-29T12:42:05.715Z,10.70
2019-04-29T12:44:50.589Z,10.70
2019-04-29T12:47:26.747Z,10.50
2019-04-29T12:49:56.049Z,10.50
2019-04-29T12:52:26.325Z,10.40
2019-04-29T12:54:56.595Z,10.40
2019-04-29T12:57:26.512Z,10.30
2019-04-29T12:59:56.533Z,10.40
2019-04-29T13:02:51.463Z,10.40
2019-04-29T13:05:36.795Z,10.40
2019-04-29T13:08:15.846Z,10.40
2019-04-29T13:10:54.168Z,10.30
2019-04-29T13:13:24.147Z,10.30
2019-04-29T13:16:03.030Z,10.30
2019-04-29T13:18:38.825Z,10.20
2019-04-29T13:21:10.642Z,10.20
2019-04-29T13:23:59.183Z,10.20
2019-04-29T13:26:26.994Z,10.30
2019-04-29T13:28:58.878Z,10.30
2019-04-29T13:31:20.026Z,10.20
2019-04-29T13:33:51.077Z,10.20
2019-04-29T13:36:25.957Z,10.20
2019-04-29T13:38:52.767Z,10.10
2019-04-29T13:41:24.418Z,10.20
2019-04-29T13:44:03.886Z,10.10
2019-04-29T13:46:51.094Z,10.10
2019-04-29T13:49:34.256Z,10.20
2019-04-29T13:52:04.716Z,10.10
2019-04-29T13:54:37.195Z,10.20
2019-04-29T13:57:11.406Z,10.20
2019-04-29T13:59:50.356Z,10.20
2019-04-29T14:02:31.153Z,10.20
2019-04-29T14:05:00.192Z,10.30
2019-04-29T14:07:30.819Z,10.20
2019-04-29T14:10:00.817Z,10.20
2019-04-29T14:12:51.148Z,10.10
2019-04-29T14:15:04.669Z,10.00
2019-04-29T14:17:35.695Z,10.10
2019-04-29T14:20:10.682Z,10.10
2019-04-29T14:22:38.751Z,10.10
2019-04-29T14:25:09.210Z,10.20
2019-04-29T14:27:39.234Z,10.10
2019-04-29T14:30:14.274Z,10.10
2019-04-29T14:32:47.024Z,10.10
2019-04-29T14:35:36.179Z,10.20
2019-04-29T14:38:06.268Z,10.20
2019-04-29T14:40:39.042Z,10.20
2019-04-29T14:43:31.939Z,10.20
2019-04-29T14:46:18.090Z,10.20
2019-04-29T14:49:07.123Z,10.20
2019-04-29T14:51:38.026Z,10.20
2019-04-29T14:54:09.275Z,10.20
2019-04-29T14:56:39.264Z,10.20
2019-04-29T14:59:09.230Z,10.20
2019-04-29T15:01:53.680Z,10.20
2019-04-29T15:04:26.249Z,10.30
2019-04-29T15:06:57.039Z,10.20
2019-04-29T15:09:27.167Z,10.20
2019-04-29T15:12:02.415Z,10.30
2019-04-29T15:14:41.742Z,10.30
2019-04-29T15:17:46.682Z,10.30
2019-04-29T15:20:33.507Z,10.20
2019-04-29T15:23:03.590Z,10.20
2019-04-29T15:25:33.701Z,10.30
2019-04-29T15:28:03.688Z,10.30
2019-04-29T15:30:36.906Z,10.30
2019-04-29T15:33:05.451Z,10.30
2019-04-29T15:35:35.503Z,10.40
2019-04-29T15:38:05.852Z,10.40
2019-04-29T15:40:42.837Z,10.40
2019-04-29T15:43:07.859Z,10.50
2019-04-29T15:45:40.455Z,10.40
2019-04-29T15:48:09.507Z,10.50
2019-04-29T15:50:39.410Z,10.50
2019-04-29T15:53:09.319Z,10.40
2019-04-29T15:55:41.006Z,10.50
2019-04-29T15:58:11.233Z,10.50
2019-04-29T16:00:42.486Z,10.50
2019-04-29T16:03:17.875Z,10.50
2019-04-29T16:06:20.413Z,10.50
2019-04-29T16:08:46.669Z,10.50
2019-04-29T16:11:34.761Z,10.50
2019-04-29T16:14:10.211Z,10.40
2019-04-29T16:16:39.435Z,10.40
2019-04-29T16:19:10.515Z,10.40
2019-04-29T16:21:41.813Z,10.40
2019-04-29T16:24:25.994Z,10.40
2019-04-29T16:26:43.696Z,10.30
2019-04-29T16:29:15.445Z,10.30
2019-04-29T16:31:45.675Z,10.30
2019-04-29T16:34:15.750Z,10.30
2019-04-29T16:36:49.826Z,10.20
2019-04-29T16:39:18.783Z,10.20
2019-04-29T16:42:16.692Z,10.20
2019-04-29T16:44:47.473Z,10.10
2019-04-29T16:47:17.825Z,10.10
2019-04-29T16:49:47.802Z,10.10
2019-04-29T16:52:17.880Z,10.10
2019-04-29T16:54:47.838Z,10.10
2019-04-29T16:57:17.819Z,10.10
2019-04-29T16:59:48.162Z,10.20
2019-04-29T17:02:19.759Z,10.10
2019-04-29T17:04:50.335Z,10.10
2019-04-29T17:07:20.406Z,10.20
2019-04-29T17:10:08.278Z,10.10
2019-04-29T17:12:42.710Z,10.20
2019-04-29T17:15:24.157Z,10.20
2019-04-29T17:17:45.022Z,10.20
2019-04-29T17:20:15.295Z,10.20
2019-04-29T17:22:45.301Z,10.20
2019-04-29T17:25:17.097Z,10.20
2019-04-29T17:28:11.816Z,10.20
2019-04-29T17:31:13.705Z,10.20
2019-04-29T17:33:50.098Z,10.20
2019-04-29T17:36:23.556Z,10.20
2019-04-29T17:38:51.577Z,10.30
2019-04-29T17:41:21.895Z,10.10
2019-04-29T17:44:20.292Z,10.10
2019-04-29T17:47:02.726Z,10.10
2019-04-29T17:50:06.743Z,10.20
2019-04-29T17:52:36.681Z,10.20
2019-04-29T17:55:12.874Z,10.30
2019-04-29T17:57:57.773Z,10.30
2019-04-29T18:00:43.753Z,10.20
2019-04-29T18:03:41.598Z,10.20
2019-04-29T18:06:17.204Z,10.10
2019-04-29T18:09:04.845Z,10.10
2019-04-29T18:11:49.532Z,10.10
2019-04-29T18:14:08.296Z,10.10
2019-04-29T18:16:43.647Z,10.10
2019-04-29T18:19:25.054Z,10.10
2019-04-29T18:22:18.763Z,10.10
2019-04-29T18:24:57.128Z,10.00
2019-04-29T18:27:28.465Z,10.00
2019-04-29T18:29:58.452Z,10.10
2019-04-29T18:32:35.526Z,10.10
2019-04-29T18:35:00.648Z,10.10
2019-04-29T18:37:36.908Z,10.10
2019-04-29T18:40:03.582Z,10.10
2019-04-29T18:42:33.562Z,10.00
2019-04-29T18:45:05.104Z,10.00
2019-04-29T18:47:38.655Z,10.00
2019-04-29T18:50:07.388Z,10.10
2019-04-29T18:52:37.382Z,10.10
2019-04-29T18:55:07.585Z,10.00
2019-04-29T18:57:37.591Z,10.00
2019-04-29T19:00:12.087Z,9.90
2019-04-29T19:02:45.967Z,10.00
2019-04-29T19:05:17.248Z,10.00
2019-04-29T19:07:55.019Z,10.10
2019-04-29T19:10:19.434Z,10.10
2019-04-29T19:12:58.151Z,10.00
2019-04-29T19:15:21.390Z,10.00
2019-04-29T19:17:58.998Z,10.00
2019-04-29T19:20:25.027Z,9.90
2019-04-29T19:23:05.454Z,10.00
2019-04-29T19:25:27.119Z,10.00
2019-04-29T19:28:11.510Z,10.00
2019-04-29T19:30:31.770Z,10.00
2019-04-29T19:33:01.916Z,9.90
2019-04-29T19:35:34.572Z,9.90
2019-04-29T19:38:05.124Z,9.90
2019-04-29T19:40:41.363Z,9.90
2019-04-29T19:43:10.331Z,9.90
2019-04-29T19:45:39.336Z,10.00
2019-04-29T19:48:09.369Z,10.00
2019-04-29T19:50:39.492Z,10.00
2019-04-29T19:53:09.542Z,9.90
2019-04-29T19:55:42.245Z,10.00
2019-04-29T19:58:12.690Z,9.90
2019-04-29T20:00:43.675Z,9.90
2019-04-29T20:03:21.214Z,9.90
2019-04-29T20:05:50.764Z,9.90
2019-04-29T20:08:40.985Z,9.80
2019-04-29T20:10:53.112Z,9.80
2019-04-29T20:13:30.675Z,9.70
2019-04-29T20:16:12.601Z,9.80
2019-04-29T20:19:02.847Z,9.80
2019-04-29T20:21:36.267Z,9.90
2019-04-29T20:24:09.504Z,9.90
2019-04-29T20:26:38.560Z,9.90
2019-04-29T20:29:08.993Z,9.80
2019-04-29T20:31:43.555Z,9.90
2019-04-29T20:34:11.229Z,9.90
2019-04-29T20:36:43.009Z,9.90
2019-04-29T20:39:16.261Z,9.90
2019-04-29T20:41:48.741Z,9.90
2019-04-29T20:44:17.210Z,9.90
2019-04-29T20:47:13.033Z,9.90
2019-04-29T20:49:19.291Z,9.80
2019-04-29T20:51:52.390Z,9.90
2019-04-29T20:54:25.748Z,9.80
2019-04-29T20:57:02.943Z,9.80
2019-04-29T20:59:27.681Z,9.80
2019-04-29T21:02:12.157Z,9.80
2019-04-29T21:04:39.303Z,9.80
2019-04-29T21:07:04.512Z,9.80
2019-04-29T21:09:35.591Z,9.70
2019-04-29T21:12:15.680Z,9.70
2019-04-29T21:14:49.241Z,9.80
2019-04-29T21:17:28.746Z,9.80
2019-04-29T21:19:51.159Z,9.70
2019-04-29T21:22:23.603Z,9.70
2019-04-29T21:24:53.919Z,9.70
2019-04-29T21:27:26.031Z,9.80
2019-04-29T21:29:56.097Z,9.80
2019-04-29T21:32:30.592Z,9.70
2019-04-29T21:35:14.506Z,9.80
2019-04-29T21:37:49.103Z,9.80
2019-04-29T21:40:26.600Z,9.80
2019-04-29T21:43:00.842Z,9.80
2019-04-29T21:45:30.819Z,9.80
2019-04-29T21:48:01.887Z,9.90
2019-04-29T21:50:36.762Z,9.90
2019-04-29T21:53:05.095Z,9.90
2019-04-29T21:55:35.729Z,9.90
2019-04-29T21:58:05.858Z,9.90
2019-04-29T22:00:37.383Z,9.90
2019-04-29T22:03:09.071Z,9.90
2019-04-29T22:05:39.017Z,10.00
2019-04-29T22:08:08.945Z,9.90
2019-04-29T22:10:39.255Z,9.80
2019-04-29T22:13:09.645Z,9.90
2019-04-29T22:15:42.400Z,9.90
2019-04-29T22:18:13.627Z,9.90
2019-04-29T22:20:43.437Z,9.90
2019-04-29T22:23:15.250Z,9.90
2019-04-29T22:25:47.070Z,9.90
2019-04-29T22:28:19.762Z,9.80
2019-04-29T22:30:49.873Z,9.80
2019-04-29T22:33:20.770Z,9.80
2019-04-29T22:35:50.920Z,9.70
2019-04-29T22:38:20.901Z,9.80
2019-04-29T22:40:51.912Z,9.70
2019-04-29T22:43:44.607Z,9.70
2019-04-29T22:46:12.684Z,9.60
2019-04-29T22:48:45.377Z,9.60
2019-04-29T22:51:18.701Z,9.60
2019-04-29T22:53:48.174Z,9.50
2019-04-29T22:56:18.004Z,9.50
2019-04-29T22:58:47.971Z,9.50
2019-04-29T23:01:18.033Z,9.50
2019-04-29T23:03:48.006Z,9.50
2019-04-29T23:06:18.002Z,9.50
2019-04-29T23:08:48.888Z,9.40
2019-04-29T23:11:20.274Z,9.40
2019-04-29T23:13:50.069Z,9.40
2019-04-29T23:16:19.959Z,9.40
2019-04-29T23:18:49.863Z,9.40
2019-04-29T23:21:43.037Z,9.30
2019-04-29T23:24:26.619Z,9.30
2019-04-29T23:26:56.608Z,9.40
2019-04-29T23:29:26.485Z,9.40
2019-04-29T23:31:59.826Z,9.40
2019-04-29T23:34:29.566Z,9.50
2019-04-29T23:36:59.802Z,9.50
2019-04-29T23:39:29.762Z,9.50
2019-04-29T23:41:59.759Z,9.40
2019-04-29T23:44:29.772Z,9.40
2019-04-29T23:46:59.752Z,9.30
2019-04-29T23:49:29.745Z,9.30
2019-04-29T23:51:59.991Z,9.30
2019-04-29T23:54:29.946Z,9.40
2019-04-29T23:57:23.693Z,9.40
